sensor_id;sensor_type;location;lat;lon;timestamp;pressure;altitude;pressure_sealevel;temperature;humidity
68822;BME280;55834;50.870;4.606;2024-02-26T00:01:25;98846.34;;;6.08;57.55
68822;BME280;55834;50.870;4.606;2024-02-26T00:03:50;98854.06;;;5.44;59.17
68822;BME280;55834;50.870;4.606;2024-02-26T00:06:15;98844.78;;;5.82;59.53
68822;BME280;55834;50.870;4.606;2024-02-26T00:08:41;98834.47;;;5.78;58.91
68822;BME280;55834;50.870;4.606;2024-02-26T00:11:06;98836.47;;;6.15;58.44
68822;BME280;55834;50.870;4.606;2024-02-26T00:13:32;98843.53;;;6.35;56.92
68822;BME280;55834;50.870;4.606;2024-02-26T00:15:57;98842.13;;;6.26;57.68
68822;BME280;55834;50.870;4.606;2024-02-26T00:18:23;98832.19;;;5.91;58.67
68822;BME280;55834;50.870;4.606;2024-02-26T00:20:48;98835.72;;;5.68;59.82
68822;BME280;55834;50.870;4.606;2024-02-26T00:23:16;98833.25;;;5.17;60.48
68822;BME280;55834;50.870;4.606;2024-02-26T00:25:42;98837.13;;;5.31;61.23
68822;BME280;55834;50.870;4.606;2024-02-26T00:28:09;98839.81;;;4.79;61.14
68822;BME280;55834;50.870;4.606;2024-02-26T00:30:35;98837.34;;;5.25;61.06
68822;BME280;55834;50.870;4.606;2024-02-26T00:33:00;98828.53;;;5.73;60.58
68822;BME280;55834;50.870;4.606;2024-02-26T00:35:26;98839.81;;;4.79;62.64
68822;BME280;55834;50.870;4.606;2024-02-26T00:37:51;98835.22;;;5.58;60.25
68822;BME280;55834;50.870;4.606;2024-02-26T00:40:16;98829.97;;;6.03;60.16
68822;BME280;55834;50.870;4.606;2024-02-26T00:42:42;98834.47;;;5.78;59.12
68822;BME280;55834;50.870;4.606;2024-02-26T00:45:11;98833.44;;;6.04;58.60
68822;BME280;55834;50.870;4.606;2024-02-26T00:47:37;98847.03;;;6.34;58.54
68822;BME280;55834;50.870;4.606;2024-02-26T00:50:02;98838.88;;;6.20;58.81
68822;BME280;55834;50.870;4.606;2024-02-26T00:52:28;98832.75;;;6.21;57.74
68822;BME280;55834;50.870;4.606;2024-02-26T00:54:53;98830.50;;;6.11;59.10
68822;BME280;55834;50.870;4.606;2024-02-26T00:57:18;98834.97;;;5.64;59.26
68822;BME280;55834;50.870;4.606;2024-02-26T00:59:44;98835.13;;;6.05;58.66
68822;BME280;55834;50.870;4.606;2024-02-26T01:02:09;98828.19;;;5.36;60.69
68822;BME280;55834;50.870;4.606;2024-02-26T01:04:35;98835.91;;;4.66;63.67
68822;BME280;55834;50.870;4.606;2024-02-26T01:07:00;98846.44;;;3.25;68.50
68822;BME280;55834;50.870;4.606;2024-02-26T01:09:25;98833.03;;;4.22;65.94
68822;BME280;55834;50.870;4.606;2024-02-26T01:11:51;98840.69;;;5.03;64.58
68822;BME280;55834;50.870;4.606;2024-02-26T01:14:16;98838.41;;;4.94;62.98
68822;BME280;55834;50.870;4.606;2024-02-26T01:16:41;98837.56;;;4.43;64.85
68822;BME280;55834;50.870;4.606;2024-02-26T01:19:07;98839.06;;;4.50;64.42
68822;BME280;55834;50.870;4.606;2024-02-26T01:21:32;98835.34;;;5.08;62.88
68822;BME280;55834;50.870;4.606;2024-02-26T01:23:58;98830.09;;;4.06;66.19
68822;BME280;55834;50.870;4.606;2024-02-26T01:26:23;98822.41;;;4.53;64.94
68822;BME280;55834;50.870;4.606;2024-02-26T01:28:48;98826.53;;;5.10;62.95
68822;BME280;55834;50.870;4.606;2024-02-26T01:31:14;98821.63;;;4.76;62.81
68822;BME280;55834;50.870;4.606;2024-02-26T01:33:39;98817.44;;;3.66;66.76
68822;BME280;55834;50.870;4.606;2024-02-26T01:36:05;98814.97;;;4.67;63.25
68822;BME280;55834;50.870;4.606;2024-02-26T01:38:31;98813.16;;;4.69;62.88
68822;BME280;55834;50.870;4.606;2024-02-26T01:40:56;98825.16;;;3.69;65.90
68822;BME280;55834;50.870;4.606;2024-02-26T01:43:22;98821.06;;;3.30;69.07
68822;BME280;55834;50.870;4.606;2024-02-26T01:45:47;98833.34;;;2.63;70.79
68822;BME280;55834;50.870;4.606;2024-02-26T01:48:13;98829.59;;;2.04;73.36
68822;BME280;55834;50.870;4.606;2024-02-26T01:50:40;98826.78;;;2.48;71.56
68822;BME280;55834;50.870;4.606;2024-02-26T01:53:06;98819.94;;;3.69;67.53
68822;BME280;55834;50.870;4.606;2024-02-26T01:55:32;98826.16;;;3.93;66.76
68822;BME280;55834;50.870;4.606;2024-02-26T01:57:58;98827.50;;;4.04;66.86
68822;BME280;55834;50.870;4.606;2024-02-26T02:00:24;98832.41;;;4.40;64.59
68822;BME280;55834;50.870;4.606;2024-02-26T02:02:50;98829.97;;;3.23;69.26
68822;BME280;55834;50.870;4.606;2024-02-26T02:05:16;98830.91;;;3.50;66.92
68822;BME280;55834;50.870;4.606;2024-02-26T02:07:45;98824.22;;;3.42;67.77
68822;BME280;55834;50.870;4.606;2024-02-26T02:10:12;98829.47;;;2.78;70.88
68822;BME280;55834;50.870;4.606;2024-02-26T02:12:38;98825.72;;;2.88;70.95
68822;BME280;55834;50.870;4.606;2024-02-26T02:15:05;98828.41;;;3.16;69.24
68822;BME280;55834;50.870;4.606;2024-02-26T02:17:31;98839.25;;;3.02;69.01
68822;BME280;55834;50.870;4.606;2024-02-26T02:19:57;98841.00;;;3.33;69.18
68822;BME280;55834;50.870;4.606;2024-02-26T02:22:22;98836.06;;;4.10;66.64
68822;BME280;55834;50.870;4.606;2024-02-26T02:24:49;98836.44;;;3.69;67.81
68822;BME280;55834;50.870;4.606;2024-02-26T02:27:14;98832.09;;;3.40;69.03
68822;BME280;55834;50.870;4.606;2024-02-26T02:29:40;98845.69;;;3.51;68.53
68822;BME280;55834;50.870;4.606;2024-02-26T02:32:06;98831.25;;;3.08;69.13
68822;BME280;55834;50.870;4.606;2024-02-26T02:34:32;98835.84;;;3.31;68.90
68822;BME280;55834;50.870;4.606;2024-02-26T02:36:59;98832.28;;;3.01;69.34
68822;BME280;55834;50.870;4.606;2024-02-26T02:39:24;98841.94;;;3.60;69.64
68822;BME280;55834;50.870;4.606;2024-02-26T02:41:49;98838.25;;;3.37;69.38
68822;BME280;55834;50.870;4.606;2024-02-26T02:44:15;98840.03;;;4.21;67.94
68822;BME280;55834;50.870;4.606;2024-02-26T02:46:40;98842.28;;;4.59;65.75
68822;BME280;55834;50.870;4.606;2024-02-26T02:49:09;98843.06;;;3.79;67.65
68822;BME280;55834;50.870;4.606;2024-02-26T02:51:37;98842.59;;;3.06;69.83
68822;BME280;55834;50.870;4.606;2024-02-26T02:54:03;98844.50;;;2.34;72.10
68822;BME280;55834;50.870;4.606;2024-02-26T02:56:29;98835.09;;;2.28;73.83
68822;BME280;55834;50.870;4.606;2024-02-26T02:58:54;98843.66;;;2.67;72.08
68822;BME280;55834;50.870;4.606;2024-02-26T03:01:19;98842.63;;;2.03;73.79
68822;BME280;55834;50.870;4.606;2024-02-26T03:03:45;98838.84;;;2.85;72.29
68822;BME280;55834;50.870;4.606;2024-02-26T03:06:10;98839.88;;;3.10;70.11
68822;BME280;55834;50.870;4.606;2024-02-26T03:08:36;98835.59;;;2.44;73.78
68822;BME280;55834;50.870;4.606;2024-02-26T03:11:05;98847.47;;;2.87;71.15
68822;BME280;55834;50.870;4.606;2024-02-26T03:13:30;98844.94;;;3.16;71.48
68822;BME280;55834;50.870;4.606;2024-02-26T03:15:56;98855.13;;;3.26;70.50
68822;BME280;55834;50.870;4.606;2024-02-26T03:18:22;98857.50;;;2.35;73.18
68822;BME280;55834;50.870;4.606;2024-02-26T03:20:47;98863.25;;;2.81;72.09
68822;BME280;55834;50.870;4.606;2024-02-26T03:23:13;98865.09;;;2.77;70.59
68822;BME280;55834;50.870;4.606;2024-02-26T03:25:42;98856.56;;;3.36;70.55
68822;BME280;55834;50.870;4.606;2024-02-26T03:28:08;98860.56;;;2.84;70.15
68822;BME280;55834;50.870;4.606;2024-02-26T03:30:33;98857.06;;;3.17;69.68
68822;BME280;55834;50.870;4.606;2024-02-26T03:32:58;98853.47;;;3.22;71.75
68822;BME280;55834;50.870;4.606;2024-02-26T03:35:24;98856.75;;;2.64;71.64
68822;BME280;55834;50.870;4.606;2024-02-26T03:37:49;98851.22;;;2.77;72.63
68822;BME280;55834;50.870;4.606;2024-02-26T03:40:16;98861.84;;;3.02;70.49
68822;BME280;55834;50.870;4.606;2024-02-26T03:42:43;98864.59;;;2.28;72.39
68822;BME280;55834;50.870;4.606;2024-02-26T03:45:09;98859.94;;;2.76;72.14
68822;BME280;55834;50.870;4.606;2024-02-26T03:47:34;98868.22;;;2.90;70.52
68822;BME280;55834;50.870;4.606;2024-02-26T03:50:00;98856.22;;;2.52;72.46
68822;BME280;55834;50.870;4.606;2024-02-26T03:52:25;98858.75;;;3.50;70.34
68822;BME280;55834;50.870;4.606;2024-02-26T03:54:50;98859.03;;;3.40;69.76
68822;BME280;55834;50.870;4.606;2024-02-26T03:57:16;98861.19;;;3.26;70.87
68822;BME280;55834;50.870;4.606;2024-02-26T03:59:41;98869.66;;;2.35;72.89
68822;BME280;55834;50.870;4.606;2024-02-26T04:02:07;98888.31;;;2.18;73.12
68822;BME280;55834;50.870;4.606;2024-02-26T04:04:35;98869.88;;;2.94;72.72
68822;BME280;55834;50.870;4.606;2024-02-26T04:07:00;98883.50;;;2.71;72.27
68822;BME280;55834;50.870;4.606;2024-02-26T04:09:25;98887.88;;;3.03;71.04
68822;BME280;55834;50.870;4.606;2024-02-26T04:11:51;98880.13;;;3.33;69.13
68822;BME280;55834;50.870;4.606;2024-02-26T04:14:16;98882.56;;;3.06;71.02
68822;BME280;55834;50.870;4.606;2024-02-26T04:16:42;98879.25;;;3.32;70.38
68822;BME280;55834;50.870;4.606;2024-02-26T04:19:08;98898.34;;;3.02;71.29
68822;BME280;55834;50.870;4.606;2024-02-26T04:21:34;98890.72;;;2.94;71.70
68822;BME280;55834;50.870;4.606;2024-02-26T04:24:00;98889.03;;;2.59;72.39
68822;BME280;55834;50.870;4.606;2024-02-26T04:26:27;98907.06;;;2.66;72.05
68822;BME280;55834;50.870;4.606;2024-02-26T04:28:53;98894.75;;;2.73;72.53
68822;BME280;55834;50.870;4.606;2024-02-26T04:31:19;98905.41;;;3.31;69.60
68822;BME280;55834;50.870;4.606;2024-02-26T04:33:44;98906.97;;;3.04;70.69
68822;BME280;55834;50.870;4.606;2024-02-26T04:36:15;98919.44;;;2.92;69.99
68822;BME280;55834;50.870;4.606;2024-02-26T04:38:44;98923.78;;;2.22;74.45
68822;BME280;55834;50.870;4.606;2024-02-26T04:41:09;98922.47;;;2.41;73.05
68822;BME280;55834;50.870;4.606;2024-02-26T04:43:36;98912.69;;;2.85;72.00
68822;BME280;55834;50.870;4.606;2024-02-26T04:46:10;98914.47;;;2.83;72.55
68822;BME280;55834;50.870;4.606;2024-02-26T04:48:38;98916.03;;;2.55;72.29
68822;BME280;55834;50.870;4.606;2024-02-26T04:51:04;98908.63;;;2.39;74.70
68822;BME280;55834;50.870;4.606;2024-02-26T04:53:30;98920.00;;;2.35;74.21
68822;BME280;55834;50.870;4.606;2024-02-26T04:55:55;98937.94;;;2.10;74.61
68822;BME280;55834;50.870;4.606;2024-02-26T04:58:21;98933.63;;;2.09;73.92
68822;BME280;55834;50.870;4.606;2024-02-26T05:00:46;98935.13;;;2.19;75.42
68822;BME280;55834;50.870;4.606;2024-02-26T05:03:12;98947.44;;;2.50;74.02
68822;BME280;55834;50.870;4.606;2024-02-26T05:05:39;98939.13;;;2.34;74.23
68822;BME280;55834;50.870;4.606;2024-02-26T05:08:05;98938.06;;;2.79;72.73
68822;BME280;55834;50.870;4.606;2024-02-26T05:10:31;98952.13;;;2.34;73.83
68822;BME280;55834;50.870;4.606;2024-02-26T05:12:57;98958.41;;;2.63;73.54
68822;BME280;55834;50.870;4.606;2024-02-26T05:15:22;98960.03;;;3.01;72.28
68822;BME280;55834;50.870;4.606;2024-02-26T05:17:48;98952.66;;;2.48;72.67
68822;BME280;55834;50.870;4.606;2024-02-26T05:20:13;98953.03;;;2.69;71.64
68822;BME280;55834;50.870;4.606;2024-02-26T05:22:38;98951.63;;;2.91;72.89
68822;BME280;55834;50.870;4.606;2024-02-26T05:25:04;98959.88;;;3.07;71.56
68822;BME280;55834;50.870;4.606;2024-02-26T05:27:29;98969.28;;;2.44;73.63
68822;BME280;55834;50.870;4.606;2024-02-26T05:29:55;98984.59;;;1.79;75.04
68822;BME280;55834;50.870;4.606;2024-02-26T05:32:21;98978.06;;;1.58;76.71
68822;BME280;55834;50.870;4.606;2024-02-26T05:34:46;98968.53;;;2.75;73.54
68822;BME280;55834;50.870;4.606;2024-02-26T05:37:12;98963.59;;;2.64;73.88
68822;BME280;55834;50.870;4.606;2024-02-26T05:39:37;98963.22;;;3.12;71.51
68822;BME280;55834;50.870;4.606;2024-02-26T05:42:04;98985.81;;;1.59;76.96
68822;BME280;55834;50.870;4.606;2024-02-26T05:44:29;98977.91;;;2.08;76.75
68822;BME280;55834;50.870;4.606;2024-02-26T05:46:55;98978.81;;;2.05;76.07
68822;BME280;55834;50.870;4.606;2024-02-26T05:49:20;98976.81;;;2.55;74.94
68822;BME280;55834;50.870;4.606;2024-02-26T05:51:59;98995.22;;;2.09;76.11
68822;BME280;55834;50.870;4.606;2024-02-26T05:54:24;98988.47;;;2.00;76.09
68822;BME280;55834;50.870;4.606;2024-02-26T05:56:56;98992.31;;;1.84;77.14
68822;BME280;55834;50.870;4.606;2024-02-26T05:59:21;98994.66;;;2.35;75.49
68822;BME280;55834;50.870;4.606;2024-02-26T06:01:52;98993.50;;;1.67;78.17
68822;BME280;55834;50.870;4.606;2024-02-26T06:04:18;98995.63;;;2.31;75.67
68822;BME280;55834;50.870;4.606;2024-02-26T06:07:09;98994.19;;;2.55;74.19
68822;BME280;55834;50.870;4.606;2024-02-26T06:09:46;98999.22;;;2.26;74.87
68822;BME280;55834;50.870;4.606;2024-02-26T06:12:17;99006.31;;;2.18;75.82
68822;BME280;55834;50.870;4.606;2024-02-26T06:14:56;99014.50;;;2.78;73.12
68822;BME280;55834;50.870;4.606;2024-02-26T06:17:35;99017.75;;;2.11;75.81
68822;BME280;55834;50.870;4.606;2024-02-26T06:20:00;99015.81;;;2.95;73.08
68822;BME280;55834;50.870;4.606;2024-02-26T06:22:29;99040.16;;;2.18;76.01
68822;BME280;55834;50.870;4.606;2024-02-26T06:25:07;99037.53;;;1.78;77.90
68822;BME280;55834;50.870;4.606;2024-02-26T06:27:48;99034.31;;;2.07;77.81
68822;BME280;55834;50.870;4.606;2024-02-26T06:30:16;99036.50;;;2.27;75.61
68822;BME280;55834;50.870;4.606;2024-02-26T06:32:45;99049.59;;;2.64;72.90
68822;BME280;55834;50.870;4.606;2024-02-26T06:35:15;99061.88;;;2.17;75.75
68822;BME280;55834;50.870;4.606;2024-02-26T06:37:41;99058.69;;;2.45;74.18
68822;BME280;55834;50.870;4.606;2024-02-26T06:40:07;99068.97;;;2.51;72.93
68822;BME280;55834;50.870;4.606;2024-02-26T06:42:32;99067.97;;;2.57;74.03
68822;BME280;55834;50.870;4.606;2024-02-26T06:45:01;99067.75;;;2.27;73.61
68822;BME280;55834;50.870;4.606;2024-02-26T06:47:32;99075.66;;;2.63;71.96
68822;BME280;55834;50.870;4.606;2024-02-26T06:49:58;99073.25;;;2.13;75.73
68822;BME280;55834;50.870;4.606;2024-02-26T06:52:23;99092.28;;;1.72;76.50
68822;BME280;55834;50.870;4.606;2024-02-26T06:54:50;99080.91;;;2.21;75.11
68822;BME280;55834;50.870;4.606;2024-02-26T06:57:18;99094.00;;;2.58;74.25
68822;BME280;55834;50.870;4.606;2024-02-26T06:59:46;99092.63;;;2.40;74.17
68822;BME280;55834;50.870;4.606;2024-02-26T07:02:15;99101.72;;;1.77;75.84
68822;BME280;55834;50.870;4.606;2024-02-26T07:04:42;99099.50;;;2.02;76.21
68822;BME280;55834;50.870;4.606;2024-02-26T07:07:08;99109.72;;;2.12;74.33
68822;BME280;55834;50.870;4.606;2024-02-26T07:09:33;99101.63;;;2.67;73.99
68822;BME280;55834;50.870;4.606;2024-02-26T07:11:58;99108.72;;;2.19;75.56
68822;BME280;55834;50.870;4.606;2024-02-26T07:14:24;99114.13;;;2.08;76.32
68822;BME280;55834;50.870;4.606;2024-02-26T07:16:50;99115.47;;;1.82;74.96
68822;BME280;55834;50.870;4.606;2024-02-26T07:19:15;99126.47;;;1.98;75.58
68822;BME280;55834;50.870;4.606;2024-02-26T07:21:41;99119.53;;;1.99;76.09
68822;BME280;55834;50.870;4.606;2024-02-26T07:24:06;99150.25;;;1.29;77.47
68822;BME280;55834;50.870;4.606;2024-02-26T07:26:32;99143.03;;;0.90;80.85
68822;BME280;55834;50.870;4.606;2024-02-26T07:28:57;99161.06;;;1.00;81.21
68822;BME280;55834;50.870;4.606;2024-02-26T07:31:23;99164.44;;;1.05;79.52
68822;BME280;55834;50.870;4.606;2024-02-26T07:33:49;99152.09;;;1.73;77.52
68822;BME280;55834;50.870;4.606;2024-02-26T07:36:14;99165.63;;;1.41;77.78
68822;BME280;55834;50.870;4.606;2024-02-26T07:38:39;99158.34;;;1.09;78.88
68822;BME280;55834;50.870;4.606;2024-02-26T07:41:05;99163.28;;;1.78;77.31
68822;BME280;55834;50.870;4.606;2024-02-26T07:43:30;99165.97;;;2.20;75.56
68822;BME280;55834;50.870;4.606;2024-02-26T07:45:56;99162.50;;;2.21;74.84
68822;BME280;55834;50.870;4.606;2024-02-26T07:48:22;99170.78;;;1.95;76.82
68822;BME280;55834;50.870;4.606;2024-02-26T07:50:47;99171.22;;;2.61;74.00
68822;BME280;55834;50.870;4.606;2024-02-26T07:53:15;99168.53;;;2.23;74.98
68822;BME280;55834;50.870;4.606;2024-02-26T07:55:41;99179.03;;;2.19;75.56
68822;BME280;55834;50.870;4.606;2024-02-26T07:58:06;99186.66;;;1.27;78.66
68822;BME280;55834;50.870;4.606;2024-02-26T08:00:37;99179.09;;;2.16;76.23
68822;BME280;55834;50.870;4.606;2024-02-26T08:03:11;99186.19;;;2.06;75.63
68822;BME280;55834;50.870;4.606;2024-02-26T08:05:38;99188.94;;;1.98;75.63
68822;BME280;55834;50.870;4.606;2024-02-26T08:08:08;99207.63;;;1.15;78.50
68822;BME280;55834;50.870;4.606;2024-02-26T08:10:33;99199.59;;;1.86;77.99
68822;BME280;55834;50.870;4.606;2024-02-26T08:13:01;99201.16;;;1.95;77.47
68822;BME280;55834;50.870;4.606;2024-02-26T08:15:36;99211.47;;;1.99;75.13
68822;BME280;55834;50.870;4.606;2024-02-26T08:18:04;99225.19;;;1.58;76.62
68822;BME280;55834;50.870;4.606;2024-02-26T08:20:30;99219.94;;;1.59;78.12
68822;BME280;55834;50.870;4.606;2024-02-26T08:22:56;99227.66;;;2.17;76.64
68822;BME280;55834;50.870;4.606;2024-02-26T08:25:22;99232.50;;;1.34;77.77
68822;BME280;55834;50.870;4.606;2024-02-26T08:27:48;99217.53;;;2.00;76.86
68822;BME280;55834;50.870;4.606;2024-02-26T08:30:14;99236.59;;;1.49;77.08
68822;BME280;55834;50.870;4.606;2024-02-26T08:32:42;99239.22;;;2.50;74.36
68822;BME280;55834;50.870;4.606;2024-02-26T08:35:08;99233.16;;;2.01;74.93
68822;BME280;55834;50.870;4.606;2024-02-26T08:37:33;99248.72;;;1.52;77.35
68822;BME280;55834;50.870;4.606;2024-02-26T08:39:58;99262.56;;;0.90;79.36
68822;BME280;55834;50.870;4.606;2024-02-26T08:42:24;99253.91;;;1.50;80.09
68822;BME280;55834;50.870;4.606;2024-02-26T08:44:49;99266.09;;;1.48;78.78
68822;BME280;55834;50.870;4.606;2024-02-26T08:47:15;99265.59;;;1.80;76.72
68822;BME280;55834;50.870;4.606;2024-02-26T08:49:45;99267.44;;;1.15;78.45
68822;BME280;55834;50.870;4.606;2024-02-26T08:52:10;99276.88;;;1.19;78.83
68822;BME280;55834;50.870;4.606;2024-02-26T08:54:35;99289.22;;;1.67;77.52
68822;BME280;55834;50.870;4.606;2024-02-26T08:57:01;99292.13;;;2.02;75.71
68822;BME280;55834;50.870;4.606;2024-02-26T08:59:26;99284.09;;;2.16;75.71
68822;BME280;55834;50.870;4.606;2024-02-26T09:01:52;99284.84;;;1.70;77.41
68822;BME280;55834;50.870;4.606;2024-02-26T09:04:17;99295.78;;;1.92;76.12
68822;BME280;55834;50.870;4.606;2024-02-26T09:06:43;99291.97;;;2.13;76.25
68822;BME280;55834;50.870;4.606;2024-02-26T09:09:09;99299.03;;;2.05;76.24
68822;BME280;55834;50.870;4.606;2024-02-26T09:11:35;99305.66;;;2.23;75.88
68822;BME280;55834;50.870;4.606;2024-02-26T09:14:00;99316.25;;;1.56;77.02
68822;BME280;55834;50.870;4.606;2024-02-26T09:16:25;99319.50;;;1.71;76.90
68822;BME280;55834;50.870;4.606;2024-02-26T09:18:51;99311.44;;;2.42;75.14
68822;BME280;55834;50.870;4.606;2024-02-26T09:21:16;99317.16;;;2.11;74.71
68822;BME280;55834;50.870;4.606;2024-02-26T09:23:48;99312.28;;;2.42;74.70
68822;BME280;55834;50.870;4.606;2024-02-26T09:26:13;99322.06;;;1.75;74.73
68822;BME280;55834;50.870;4.606;2024-02-26T09:28:39;99323.47;;;1.96;75.90
68822;BME280;55834;50.870;4.606;2024-02-26T09:31:04;99325.69;;;2.21;76.85
68822;BME280;55834;50.870;4.606;2024-02-26T09:33:31;99335.91;;;1.77;75.28
68822;BME280;55834;50.870;4.606;2024-02-26T09:35:57;99339.94;;;1.97;76.48
68822;BME280;55834;50.870;4.606;2024-02-26T09:38:22;99332.81;;;2.59;73.01
68822;BME280;55834;50.870;4.606;2024-02-26T09:40:49;99349.28;;;2.10;73.34
68822;BME280;55834;50.870;4.606;2024-02-26T09:43:17;99338.72;;;2.19;73.77
68822;BME280;55834;50.870;4.606;2024-02-26T09:45:46;99336.72;;;2.83;72.48
68822;BME280;55834;50.870;4.606;2024-02-26T09:48:12;99349.03;;;2.25;72.97
68822;BME280;55834;50.870;4.606;2024-02-26T09:50:41;99362.19;;;1.59;77.05
68822;BME280;55834;50.870;4.606;2024-02-26T09:53:08;99361.31;;;1.58;78.16
68822;BME280;55834;50.870;4.606;2024-02-26T09:55:35;99357.31;;;1.33;77.23
68822;BME280;55834;50.870;4.606;2024-02-26T09:58:01;99362.25;;;1.53;77.78
68822;BME280;55834;50.870;4.606;2024-02-26T10:00:31;99378.72;;;1.53;76.53
68822;BME280;55834;50.870;4.606;2024-02-26T10:03:03;99392.91;;;1.29;76.87
68822;BME280;55834;50.870;4.606;2024-02-26T10:05:29;99376.56;;;1.85;76.28
68822;BME280;55834;50.870;4.606;2024-02-26T10:07:55;99405.78;;;1.39;77.42
68822;BME280;55834;50.870;4.606;2024-02-26T10:10:23;99386.13;;;1.82;75.68
68822;BME280;55834;50.870;4.606;2024-02-26T10:12:48;99392.91;;;1.96;75.90
68822;BME280;55834;50.870;4.606;2024-02-26T10:15:14;99415.38;;;1.33;76.24
68822;BME280;55834;50.870;4.606;2024-02-26T10:17:40;99412.75;;;1.36;78.42
68822;BME280;55834;50.870;4.606;2024-02-26T10:20:17;99421.50;;;1.31;79.08
68822;BME280;55834;50.870;4.606;2024-02-26T10:22:43;99413.38;;;1.55;77.96
68822;BME280;55834;50.870;4.606;2024-02-26T10:25:09;99417.31;;;1.87;77.23
68822;BME280;55834;50.870;4.606;2024-02-26T10:27:35;99420.31;;;1.56;77.73
68822;BME280;55834;50.870;4.606;2024-02-26T10:30:04;99428.09;;;2.20;75.16
68822;BME280;55834;50.870;4.606;2024-02-26T10:32:40;99441.47;;;1.97;74.22
68822;BME280;55834;50.870;4.606;2024-02-26T10:35:08;99428.56;;;1.18;79.14
68822;BME280;55834;50.870;4.606;2024-02-26T10:37:34;99442.53;;;1.09;79.32
68822;BME280;55834;50.870;4.606;2024-02-26T10:39:59;99432.66;;;2.05;75.92
68822;BME280;55834;50.870;4.606;2024-02-26T10:42:25;99438.81;;;2.59;73.09
68822;BME280;55834;50.870;4.606;2024-02-26T10:44:51;99433.81;;;2.43;73.18
68822;BME280;55834;50.870;4.606;2024-02-26T10:47:16;99448.69;;;2.89;70.81
68822;BME280;55834;50.870;4.606;2024-02-26T10:49:46;99462.25;;;1.27;76.94
68822;BME280;55834;50.870;4.606;2024-02-26T10:52:13;99471.91;;;1.18;76.93
68822;BME280;55834;50.870;4.606;2024-02-26T10:54:41;99450.25;;;1.90;74.60
68822;BME280;55834;50.870;4.606;2024-02-26T10:57:09;99473.00;;;1.74;74.98
68822;BME280;55834;50.870;4.606;2024-02-26T10:59:35;99479.81;;;1.82;74.57
68822;BME280;55834;50.870;4.606;2024-02-26T11:02:02;99470.72;;;2.73;71.35
68822;BME280;55834;50.870;4.606;2024-02-26T11:04:29;99474.13;;;2.19;72.29
68822;BME280;55834;50.870;4.606;2024-02-26T11:06:57;99488.59;;;1.74;74.27
68822;BME280;55834;50.870;4.606;2024-02-26T11:09:22;99489.94;;;1.33;75.11
68822;BME280;55834;50.870;4.606;2024-02-26T11:11:50;99484.72;;;2.05;74.07
68822;BME280;55834;50.870;4.606;2024-02-26T11:14:20;99502.75;;;1.50;75.60
68822;BME280;55834;50.870;4.606;2024-02-26T11:16:46;99499.28;;;1.52;74.98
68822;BME280;55834;50.870;4.606;2024-02-26T11:19:13;99509.06;;;1.27;77.05
68822;BME280;55834;50.870;4.606;2024-02-26T11:21:39;99499.03;;;1.72;75.66
68822;BME280;55834;50.870;4.606;2024-02-26T11:24:12;99505.19;;;1.65;76.47
68822;BME280;55834;50.870;4.606;2024-02-26T11:26:58;99514.63;;;1.74;74.77
68822;BME280;55834;50.870;4.606;2024-02-26T11:29:29;99511.56;;;2.12;73.12
68822;BME280;55834;50.870;4.606;2024-02-26T11:31:59;99522.28;;;1.89;73.84
68822;BME280;55834;50.870;4.606;2024-02-26T11:34:26;99545.72;;;1.00;76.52
68822;BME280;55834;50.870;4.606;2024-02-26T11:36:52;99520.31;;;1.31;75.73
68822;BME280;55834;50.870;4.606;2024-02-26T11:39:17;99524.25;;;1.69;75.20
68822;BME280;55834;50.870;4.606;2024-02-26T11:41:43;99527.97;;;1.46;76.04
68822;BME280;55834;50.870;4.606;2024-02-26T11:44:09;99526.28;;;1.41;75.70
68822;BME280;55834;50.870;4.606;2024-02-26T11:46:41;99540.44;;;1.09;76.72
68822;BME280;55834;50.870;4.606;2024-02-26T11:49:30;99540.94;;;0.37;78.92
68822;BME280;55834;50.870;4.606;2024-02-26T11:51:57;99542.47;;;0.67;78.35
68822;BME280;55834;50.870;4.606;2024-02-26T11:54:48;99542.16;;;1.11;77.42
68822;BME280;55834;50.870;4.606;2024-02-26T11:57:39;99544.25;;;1.62;75.48
68822;BME280;55834;50.870;4.606;2024-02-26T12:00:14;99556.78;;;1.23;75.32
68822;BME280;55834;50.870;4.606;2024-02-26T12:02:50;99548.13;;;2.01;72.80
68822;BME280;55834;50.870;4.606;2024-02-26T12:05:23;99546.22;;;2.14;72.61
68822;BME280;55834;50.870;4.606;2024-02-26T12:07:52;99566.97;;;1.45;76.10
68822;BME280;55834;50.870;4.606;2024-02-26T12:13:00;99575.53;;;1.57;75.34
68822;BME280;55834;50.870;4.606;2024-02-26T12:15:35;99590.56;;;1.26;75.50
68822;BME280;55834;50.870;4.606;2024-02-26T12:18:02;99577.31;;;1.51;75.54
68822;BME280;55834;50.870;4.606;2024-02-26T12:20:28;99576.03;;;1.89;74.07
68822;BME280;55834;50.870;4.606;2024-02-26T12:22:54;99579.22;;;2.14;72.46
68822;BME280;55834;50.870;4.606;2024-02-26T12:25:26;99591.91;;;1.69;74.15
68822;BME280;55834;50.870;4.606;2024-02-26T12:27:52;99587.47;;;1.75;74.92
68822;BME280;55834;50.870;4.606;2024-02-26T12:30:18;99596.47;;;1.42;74.21
68822;BME280;55834;50.870;4.606;2024-02-26T12:32:50;99601.53;;;1.56;75.27
68822;BME280;55834;50.870;4.606;2024-02-26T12:35:18;99593.91;;;1.39;74.92
68822;BME280;55834;50.870;4.606;2024-02-26T12:37:44;99600.22;;;2.00;73.84
68822;BME280;55834;50.870;4.606;2024-02-26T12:40:10;99609.88;;;1.90;73.76
68822;BME280;55834;50.870;4.606;2024-02-26T12:42:36;99616.72;;;1.02;75.77
68822;BME280;55834;50.870;4.606;2024-02-26T12:45:10;99640.53;;;1.61;75.25
68822;BME280;55834;50.870;4.606;2024-02-26T12:47:42;99618.59;;;0.81;79.69
68822;BME280;55834;50.870;4.606;2024-02-26T12:50:09;99625.81;;;1.56;76.79
68822;BME280;55834;50.870;4.606;2024-02-26T12:52:37;99631.44;;;1.04;78.03
68822;BME280;55834;50.870;4.606;2024-02-26T12:55:04;99633.16;;;1.07;77.62
68822;BME280;55834;50.870;4.606;2024-02-26T12:57:35;99638.34;;;1.10;78.22
68822;BME280;55834;50.870;4.606;2024-02-26T13:00:03;99651.44;;;0.96;77.54
68822;BME280;55834;50.870;4.606;2024-02-26T13:02:30;99657.56;;;0.90;77.91
68822;BME280;55834;50.870;4.606;2024-02-26T13:04:56;99672.28;;;0.87;78.68
68822;BME280;55834;50.870;4.606;2024-02-26T13:07:22;99644.50;;;0.98;78.80
68822;BME280;55834;50.870;4.606;2024-02-26T13:09:48;99666.34;;;0.53;79.64
68822;BME280;55834;50.870;4.606;2024-02-26T13:12:13;99670.94;;;1.55;77.14